sensor_id;sensor_type;location;lat;lon;timestamp;pressure;altitude;pressure_sealevel;temperature
77331;BMP280;66405;48.328;7.820;2023-04-30T00:02:08;100149.47;;;14.99
77331;BMP280;66405;48.328;7.820;2023-04-30T00:05:08;100147.22;;;14.98
77331;BMP280;66405;48.328;7.820;2023-04-30T00:08:09;100144.94;;;14.96
77331;BMP280;66405;48.328;7.820;2023-04-30T00:11:10;100150.88;;;14.94
77331;BMP280;66405;48.328;7.820;2023-04-30T00:14:10;100140.94;;;14.91
77331;BMP280;66405;48.328;7.820;2023-04-30T00:17:11;100139.88;;;14.89
77331;BMP280;66405;48.328;7.820;2023-04-30T00:20:11;100136.41;;;14.88
77331;BMP280;66405;48.328;7.820;2023-04-30T00:23:12;100127.22;;;14.86
77331;BMP280;66405;48.328;7.820;2023-04-30T00:26:13;100130.88;;;14.83
77331;BMP280;66405;48.328;7.820;2023-04-30T00:29:14;100131.84;;;14.80
77331;BMP280;66405;48.328;7.820;2023-04-30T00:32:15;100141.69;;;14.77
77331;BMP280;66405;48.328;7.820;2023-04-30T00:35:15;100130.53;;;14.75
77331;BMP280;66405;48.328;7.820;2023-04-30T00:38:16;100127.97;;;14.71
77331;BMP280;66405;48.328;7.820;2023-04-30T00:41:17;100126.19;;;14.68
77331;BMP280;66405;48.328;7.820;2023-04-30T00:44:18;100120.19;;;14.64
77331;BMP280;66405;48.328;7.820;2023-04-30T00:47:19;100117.38;;;14.58
77331;BMP280;66405;48.328;7.820;2023-04-30T00:50:21;100117.53;;;14.55
77331;BMP280;66405;48.328;7.820;2023-04-30T00:53:21;100112.28;;;14.51
77331;BMP280;66405;48.328;7.820;2023-04-30T00:56:22;100095.13;;;14.45
77331;BMP280;66405;48.328;7.820;2023-04-30T00:59:23;100098.78;;;14.42
77331;BMP280;66405;48.328;7.820;2023-04-30T01:02:23;100099.72;;;14.39
77331;BMP280;66405;48.328;7.820;2023-04-30T01:05:24;100096.72;;;14.37
77331;BMP280;66405;48.328;7.820;2023-04-30T01:08:25;100101.38;;;14.36
77331;BMP280;66405;48.328;7.820;2023-04-30T01:15:08;100088.25;;;14.35
77331;BMP280;66405;48.328;7.820;2023-04-30T01:18:17;100083.59;;;14.35
77331;BMP280;66405;48.328;7.820;2023-04-30T01:21:20;100080.09;;;14.35
77331;BMP280;66405;48.328;7.820;2023-04-30T01:31:00;100078.31;;;14.32
77331;BMP280;66405;48.328;7.820;2023-04-30T01:34:00;100071.09;;;14.29
77331;BMP280;66405;48.328;7.820;2023-04-30T01:37:19;100075.78;;;14.28
77331;BMP280;66405;48.328;7.820;2023-04-30T01:40:52;100082.91;;;14.25
77331;BMP280;66405;48.328;7.820;2023-04-30T01:47:56;100079.06;;;14.17
77331;BMP280;66405;48.328;7.820;2023-04-30T01:51:18;100077.25;;;14.14
77331;BMP280;66405;48.328;7.820;2023-04-30T01:54:26;100083.63;;;14.11
77331;BMP280;66405;48.328;7.820;2023-04-30T01:57:37;100086.78;;;14.09
77331;BMP280;66405;48.328;7.820;2023-04-30T02:00:39;100085.03;;;14.06
77331;BMP280;66405;48.328;7.820;2023-04-30T02:03:40;100076.59;;;14.04
77331;BMP280;66405;48.328;7.820;2023-04-30T02:06:41;100082.47;;;14.03
77331;BMP280;66405;48.328;7.820;2023-04-30T02:09:41;100079.75;;;14.03
77331;BMP280;66405;48.328;7.820;2023-04-30T02:12:42;100076.78;;;14.01
77331;BMP280;66405;48.328;7.820;2023-04-30T02:15:42;100081.59;;;13.97
77331;BMP280;66405;48.328;7.820;2023-04-30T02:18:43;100087.25;;;13.93
77331;BMP280;66405;48.328;7.820;2023-04-30T02:21:44;100090.84;;;13.90
77331;BMP280;66405;48.328;7.820;2023-04-30T02:24:45;100082.59;;;13.84
77331;BMP280;66405;48.328;7.820;2023-04-30T02:27:45;100085.66;;;13.77
77331;BMP280;66405;48.328;7.820;2023-04-30T02:30:46;100080.56;;;13.70
77331;BMP280;66405;48.328;7.820;2023-04-30T02:33:46;100084.88;;;13.62
77331;BMP280;66405;48.328;7.820;2023-04-30T02:36:47;100085.47;;;13.56
77331;BMP280;66405;48.328;7.820;2023-04-30T02:39:47;100085.66;;;13.53
77331;BMP280;66405;48.328;7.820;2023-04-30T02:42:48;100083.13;;;13.49
77331;BMP280;66405;48.328;7.820;2023-04-30T02:45:49;100078.41;;;13.50
77331;BMP280;66405;48.328;7.820;2023-04-30T02:48:49;100075.69;;;13.50
77331;BMP280;66405;48.328;7.820;2023-04-30T02:51:50;100077.50;;;13.53
77331;BMP280;66405;48.328;7.820;2023-04-30T02:54:50;100079.00;;;13.54
77331;BMP280;66405;48.328;7.820;2023-04-30T02:57:51;100070.41;;;13.55
77331;BMP280;66405;48.328;7.820;2023-04-30T03:00:51;100073.13;;;13.55
77331;BMP280;66405;48.328;7.820;2023-04-30T03:03:52;100073.41;;;13.57
77331;BMP280;66405;48.328;7.820;2023-04-30T03:06:52;100067.50;;;13.59
77331;BMP280;66405;48.328;7.820;2023-04-30T03:09:53;100063.59;;;13.60
77331;BMP280;66405;48.328;7.820;2023-04-30T03:12:53;100063.16;;;13.62
77331;BMP280;66405;48.328;7.820;2023-04-30T03:15:58;100066.59;;;13.62
77331;BMP280;66405;48.328;7.820;2023-04-30T03:18:58;100059.19;;;13.63
77331;BMP280;66405;48.328;7.820;2023-04-30T03:21:59;100061.44;;;13.64
77331;BMP280;66405;48.328;7.820;2023-04-30T03:25:00;100071.84;;;13.66
77331;BMP280;66405;48.328;7.820;2023-04-30T03:28:01;100070.63;;;13.67
77331;BMP280;66405;48.328;7.820;2023-04-30T03:31:02;100060.97;;;13.66
77331;BMP280;66405;48.328;7.820;2023-04-30T03:34:06;100064.47;;;13.66
77331;BMP280;66405;48.328;7.820;2023-04-30T03:37:07;100066.41;;;13.66
77331;BMP280;66405;48.328;7.820;2023-04-30T03:40:07;100064.78;;;13.68
77331;BMP280;66405;48.328;7.820;2023-04-30T03:43:08;100060.53;;;13.67
77331;BMP280;66405;48.328;7.820;2023-04-30T03:46:08;100055.13;;;13.67
77331;BMP280;66405;48.328;7.820;2023-04-30T03:49:09;100055.13;;;13.67
77331;BMP280;66405;48.328;7.820;2023-04-30T03:52:10;100056.31;;;13.66
77331;BMP280;66405;48.328;7.820;2023-04-30T03:55:11;100048.16;;;13.66
77331;BMP280;66405;48.328;7.820;2023-04-30T03:58:12;100044.25;;;13.67
77331;BMP280;66405;48.328;7.820;2023-04-30T04:01:12;100046.66;;;13.65
77331;BMP280;66405;48.328;7.820;2023-04-30T04:04:13;100046.34;;;13.63
77331;BMP280;66405;48.328;7.820;2023-04-30T04:07:15;100049.06;;;13.63
77331;BMP280;66405;48.328;7.820;2023-04-30T04:10:15;100049.81;;;13.64
77331;BMP280;66405;48.328;7.820;2023-04-30T04:13:16;100051.31;;;13.65
77331;BMP280;66405;48.328;7.820;2023-04-30T04:16:16;100047.41;;;13.66
77331;BMP280;66405;48.328;7.820;2023-04-30T04:19:17;100055.56;;;13.66
77331;BMP280;66405;48.328;7.820;2023-04-30T04:22:18;100056.63;;;13.68
77331;BMP280;66405;48.328;7.820;2023-04-30T04:25:20;100061.56;;;13.70
77331;BMP280;66405;48.328;7.820;2023-04-30T04:28:24;100051.94;;;13.69
77331;BMP280;66405;48.328;7.820;2023-04-30T04:31:25;100058.38;;;13.71
77331;BMP280;66405;48.328;7.820;2023-04-30T04:34:26;100054.75;;;13.74
77331;BMP280;66405;48.328;7.820;2023-04-30T04:37:26;100051.13;;;13.78
77331;BMP280;66405;48.328;7.820;2023-04-30T04:40:27;100056.81;;;13.80
77331;BMP280;66405;48.328;7.820;2023-04-30T04:43:27;100062.56;;;13.82
77331;BMP280;66405;48.328;7.820;2023-04-30T04:46:30;100062.56;;;13.82
77331;BMP280;66405;48.328;7.820;2023-04-30T04:49:31;100075.66;;;13.83
77331;BMP280;66405;48.328;7.820;2023-04-30T04:52:31;100072.03;;;13.86
77331;BMP280;66405;48.328;7.820;2023-04-30T04:55:32;100077.47;;;13.86
77331;BMP280;66405;48.328;7.820;2023-04-30T04:58:32;100075.06;;;13.88
77331;BMP280;66405;48.328;7.820;2023-04-30T05:01:33;100076.53;;;13.89
77331;BMP280;66405;48.328;7.820;2023-04-30T05:04:33;100081.03;;;13.92
77331;BMP280;66405;48.328;7.820;2023-04-30T05:07:33;100070.00;;;13.96
77331;BMP280;66405;48.328;7.820;2023-04-30T05:10:34;100075.28;;;14.00
77331;BMP280;66405;48.328;7.820;2023-04-30T05:13:35;100078.09;;;14.05
77331;BMP280;66405;48.328;7.820;2023-04-30T05:16:35;100075.94;;;14.09
77331;BMP280;66405;48.328;7.820;2023-04-30T05:19:36;100075.56;;;14.17
77331;BMP280;66405;48.328;7.820;2023-04-30T05:22:37;100074.03;;;14.25
77331;BMP280;66405;48.328;7.820;2023-04-30T05:25:37;100076.19;;;14.36
77331;BMP280;66405;48.328;7.820;2023-04-30T05:28:37;100075.16;;;14.48
77331;BMP280;66405;48.328;7.820;2023-04-30T05:31:38;100081.25;;;14.58
77331;BMP280;66405;48.328;7.820;2023-04-30T05:34:38;100074.78;;;14.70
77331;BMP280;66405;48.328;7.820;2023-04-30T05:37:39;100084.53;;;14.77
77331;BMP280;66405;48.328;7.820;2023-04-30T05:40:39;100083.69;;;14.86
77331;BMP280;66405;48.328;7.820;2023-04-30T05:43:40;100077.59;;;14.91
77331;BMP280;66405;48.328;7.820;2023-04-30T05:46:40;100078.22;;;15.01
77331;BMP280;66405;48.328;7.820;2023-04-30T05:49:41;100079.81;;;15.07
77331;BMP280;66405;48.328;7.820;2023-04-30T05:52:41;100075.00;;;15.17
77331;BMP280;66405;48.328;7.820;2023-04-30T05:55:42;100074.63;;;15.24
77331;BMP280;66405;48.328;7.820;2023-04-30T05:58:42;100070.19;;;15.27
77331;BMP280;66405;48.328;7.820;2023-04-30T06:01:43;100066.44;;;15.24
77331;BMP280;66405;48.328;7.820;2023-04-30T06:04:43;100066.25;;;15.28
77331;BMP280;66405;48.328;7.820;2023-04-30T06:07:44;100070.38;;;15.38
77331;BMP280;66405;48.328;7.820;2023-04-30T06:10:44;100060.56;;;15.46
77331;BMP280;66405;48.328;7.820;2023-04-30T06:13:48;100068.69;;;15.61
77331;BMP280;66405;48.328;7.820;2023-04-30T06:16:49;100062.38;;;15.76
77331;BMP280;66405;48.328;7.820;2023-04-30T06:19:50;100056.19;;;15.96
77331;BMP280;66405;48.328;7.820;2023-04-30T06:22:50;100053.44;;;16.16
77331;BMP280;66405;48.328;7.820;2023-04-30T06:25:51;100053.34;;;16.37
77331;BMP280;66405;48.328;7.820;2023-04-30T06:28:51;100043.88;;;16.64
77331;BMP280;66405;48.328;7.820;2023-04-30T06:31:51;100050.25;;;16.87
77331;BMP280;66405;48.328;7.820;2023-04-30T06:34:52;100055.41;;;17.17
77331;BMP280;66405;48.328;7.820;2023-04-30T06:37:52;100045.31;;;17.35
77331;BMP280;66405;48.328;7.820;2023-04-30T06:40:53;100045.41;;;17.63
77331;BMP280;66405;48.328;7.820;2023-04-30T06:43:53;100038.75;;;17.92
77331;BMP280;66405;48.328;7.820;2023-04-30T06:46:54;100061.44;;;18.16
77331;BMP280;66405;48.328;7.820;2023-04-30T06:49:54;100060.69;;;18.43
77331;BMP280;66405;48.328;7.820;2023-04-30T06:52:55;100051.94;;;18.79
77331;BMP280;66405;48.328;7.820;2023-04-30T06:55:55;100058.06;;;19.08
77331;BMP280;66405;48.328;7.820;2023-04-30T06:58:56;100056.97;;;19.39
77331;BMP280;66405;48.328;7.820;2023-04-30T07:01:56;100056.59;;;19.65
77331;BMP280;66405;48.328;7.820;2023-04-30T07:04:57;100063.44;;;19.89
77331;BMP280;66405;48.328;7.820;2023-04-30T07:08:00;100064.44;;;20.16
77331;BMP280;66405;48.328;7.820;2023-04-30T07:11:06;100060.00;;;20.43
77331;BMP280;66405;48.328;7.820;2023-04-30T07:14:07;100054.13;;;20.58
77331;BMP280;66405;48.328;7.820;2023-04-30T07:17:07;100055.97;;;20.69
77331;BMP280;66405;48.328;7.820;2023-04-30T07:20:11;100059.44;;;20.75
77331;BMP280;66405;48.328;7.820;2023-04-30T07:23:13;100055.94;;;20.75
77331;BMP280;66405;48.328;7.820;2023-04-30T07:26:14;100055.94;;;20.75
77331;BMP280;66405;48.328;7.820;2023-04-30T07:29:15;100055.50;;;20.71
77331;BMP280;66405;48.328;7.820;2023-04-30T07:32:15;100048.03;;;20.66
77331;BMP280;66405;48.328;7.820;2023-04-30T07:35:18;100051.84;;;20.62
77331;BMP280;66405;48.328;7.820;2023-04-30T07:38:19;100049.03;;;20.68
77331;BMP280;66405;48.328;7.820;2023-04-30T07:41:19;100047.25;;;20.71
77331;BMP280;66405;48.328;7.820;2023-04-30T07:44:20;100051.25;;;20.70
77331;BMP280;66405;48.328;7.820;2023-04-30T07:47:21;100047.31;;;20.65
77331;BMP280;66405;48.328;7.820;2023-04-30T07:50:21;100045.34;;;20.60
77331;BMP280;66405;48.328;7.820;2023-04-30T07:53:24;100043.53;;;20.68
77331;BMP280;66405;48.328;7.820;2023-04-30T07:56:26;100049.97;;;20.76
77331;BMP280;66405;48.328;7.820;2023-04-30T07:59:27;100052.91;;;20.78
77331;BMP280;66405;48.328;7.820;2023-04-30T08:02:28;100046.09;;;20.85
77331;BMP280;66405;48.328;7.820;2023-04-30T08:05:28;100050.44;;;20.99
77331;BMP280;66405;48.328;7.820;2023-04-30T08:08:30;100048.81;;;21.10
77331;BMP280;66405;48.328;7.820;2023-04-30T08:11:33;100053.94;;;21.19
77331;BMP280;66405;48.328;7.820;2023-04-30T08:14:33;100050.28;;;21.30
77331;BMP280;66405;48.328;7.820;2023-04-30T08:17:34;100056.06;;;21.45
77331;BMP280;66405;48.328;7.820;2023-04-30T08:20:36;100049.41;;;21.60
77331;BMP280;66405;48.328;7.820;2023-04-30T08:23:36;100054.66;;;21.77
77331;BMP280;66405;48.328;7.820;2023-04-30T08:26:38;100058.59;;;21.81
77331;BMP280;66405;48.328;7.820;2023-04-30T08:29:38;100057.66;;;21.92
77331;BMP280;66405;48.328;7.820;2023-04-30T08:32:39;100056.31;;;22.12
77331;BMP280;66405;48.328;7.820;2023-04-30T08:35:39;100052.44;;;22.34
77331;BMP280;66405;48.328;7.820;2023-04-30T08:38:40;100058.47;;;22.46
77331;BMP280;66405;48.328;7.820;2023-04-30T08:41:41;100047.56;;;22.67
77331;BMP280;66405;48.328;7.820;2023-04-30T08:44:44;100054.63;;;22.89
77331;BMP280;66405;48.328;7.820;2023-04-30T08:47:46;100059.47;;;23.10
77331;BMP280;66405;48.328;7.820;2023-04-30T08:50:49;100065.78;;;23.31
77331;BMP280;66405;48.328;7.820;2023-04-30T08:53:50;100061.91;;;23.48
77331;BMP280;66405;48.328;7.820;2023-04-30T08:56:54;100065.84;;;23.73
77331;BMP280;66405;48.328;7.820;2023-04-30T08:59:54;100057.63;;;24.02
77331;BMP280;66405;48.328;7.820;2023-04-30T09:02:55;100058.34;;;24.32
77331;BMP280;66405;48.328;7.820;2023-04-30T09:05:56;100067.22;;;24.38
77331;BMP280;66405;48.328;7.820;2023-04-30T09:09:07;100062.91;;;24.58
77331;BMP280;66405;48.328;7.820;2023-04-30T09:15:17;100050.56;;;24.59
77331;BMP280;66405;48.328;7.820;2023-04-30T09:18:18;100056.72;;;24.73
77331;BMP280;66405;48.328;7.820;2023-04-30T09:21:33;100047.88;;;24.74
77331;BMP280;66405;48.328;7.820;2023-04-30T09:24:45;100045.84;;;24.67
77331;BMP280;66405;48.328;7.820;2023-04-30T09:27:46;100040.31;;;24.67
77331;BMP280;66405;48.328;7.820;2023-04-30T09:30:47;100048.28;;;24.78
77331;BMP280;66405;48.328;7.820;2023-04-30T09:33:47;100046.38;;;24.73
77331;BMP280;66405;48.328;7.820;2023-04-30T09:36:51;100037.91;;;24.63
77331;BMP280;66405;48.328;7.820;2023-04-30T09:39:54;100041.22;;;24.70
77331;BMP280;66405;48.328;7.820;2023-04-30T09:42:57;100040.16;;;24.80
77331;BMP280;66405;48.328;7.820;2023-04-30T09:45:59;100028.75;;;24.84
77331;BMP280;66405;48.328;7.820;2023-04-30T09:49:03;100027.47;;;24.85
77331;BMP280;66405;48.328;7.820;2023-04-30T09:52:04;100033.56;;;24.91
77331;BMP280;66405;48.328;7.820;2023-04-30T09:55:05;100028.78;;;24.92
77331;BMP280;66405;48.328;7.820;2023-04-30T09:58:06;100027.50;;;24.93
77331;BMP280;66405;48.328;7.820;2023-04-30T10:01:07;100019.41;;;25.02
77331;BMP280;66405;48.328;7.820;2023-04-30T10:04:10;100016.31;;;25.37
77331;BMP280;66405;48.328;7.820;2023-04-30T10:07:12;100020.91;;;25.80
77331;BMP280;66405;48.328;7.820;2023-04-30T10:10:15;100008.13;;;26.08
77331;BMP280;66405;48.328;7.820;2023-04-30T10:13:19;100006.44;;;26.21
77331;BMP280;66405;48.328;7.820;2023-04-30T18:58:33;99858.84;;;17.74
77331;BMP280;66405;48.328;7.820;2023-04-30T19:01:36;99859.09;;;17.70
77331;BMP280;66405;48.328;7.820;2023-04-30T19:04:37;99860.06;;;17.73
77331;BMP280;66405;48.328;7.820;2023-04-30T19:07:38;99859.84;;;17.76
77331;BMP280;66405;48.328;7.820;2023-04-30T19:10:39;99862.34;;;17.80
77331;BMP280;66405;48.328;7.820;2023-04-30T19:13:39;99863.31;;;17.83
77331;BMP280;66405;48.328;7.820;2023-04-30T19:16:40;99860.84;;;17.85
77331;BMP280;66405;48.328;7.820;2023-04-30T19:19:42;99861.56;;;17.85
77331;BMP280;66405;48.328;7.820;2023-04-30T19:22:42;99861.56;;;17.85
77331;BMP280;66405;48.328;7.820;2023-04-30T19:25:46;99864.03;;;17.83
77331;BMP280;66405;48.328;7.820;2023-04-30T19:28:46;99866.53;;;17.81
77331;BMP280;66405;48.328;7.820;2023-04-30T19:31:47;99864.56;;;17.82
77331;BMP280;66405;48.328;7.820;2023-04-30T19:34:47;99869.50;;;17.77
77331;BMP280;66405;48.328;7.820;2023-04-30T19:37:48;99870.53;;;17.74
77331;BMP280;66405;48.328;7.820;2023-04-30T19:40:50;99882.19;;;17.69
77331;BMP280;66405;48.328;7.820;2023-04-30T19:43:53;99877.22;;;17.62
77331;BMP280;66405;48.328;7.820;2023-04-30T19:46:55;99885.94;;;17.55
77331;BMP280;66405;48.328;7.820;2023-04-30T19:49:57;99882.19;;;17.47
77331;BMP280;66405;48.328;7.820;2023-04-30T19:52:57;99884.16;;;17.40
77331;BMP280;66405;48.328;7.820;2023-04-30T19:55:58;99877.69;;;17.32
77331;BMP280;66405;48.328;7.820;2023-04-30T19:58:59;99879.66;;;17.20
77331;BMP280;66405;48.328;7.820;2023-04-30T20:01:59;99876.91;;;17.09
77331;BMP280;66405;48.328;7.820;2023-04-30T20:05:00;99879.09;;;16.99
77331;BMP280;66405;48.328;7.820;2023-04-30T20:08:01;99880.06;;;16.91
77331;BMP280;66405;48.328;7.820;2023-04-30T20:11:05;99879.31;;;16.84
77331;BMP280;66405;48.328;7.820;2023-04-30T20:14:06;99883.25;;;16.78
77331;BMP280;66405;48.328;7.820;2023-04-30T20:17:06;99875.50;;;16.70
77331;BMP280;66405;48.328;7.820;2023-04-30T20:20:07;99882.91;;;16.64
77331;BMP280;66405;48.328;7.820;2023-04-30T20:23:13;99876.44;;;16.56
77331;BMP280;66405;48.328;7.820;2023-04-30T20:26:13;99868.72;;;16.49
77331;BMP280;66405;48.328;7.820;2023-04-30T20:29:14;99876.38;;;16.45
77331;BMP280;66405;48.328;7.820;2023-04-30T20:32:14;99874.84;;;16.38
77331;BMP280;66405;48.328;7.820;2023-04-30T20:35:15;99866.84;;;16.29
77331;BMP280;66405;48.328;7.820;2023-04-30T20:38:15;99873.97;;;16.21
77331;BMP280;66405;48.328;7.820;2023-04-30T20:41:16;99870.97;;;16.13
77331;BMP280;66405;48.328;7.820;2023-04-30T20:44:18;99868.69;;;16.06
77331;BMP280;66405;48.328;7.820;2023-04-30T20:47:18;99867.91;;;15.99
77331;BMP280;66405;48.328;7.820;2023-04-30T20:50:19;99870.09;;;15.95
77331;BMP280;66405;48.328;7.820;2023-04-30T20:53:20;99865.34;;;15.90
77331;BMP280;66405;48.328;7.820;2023-04-30T20:56:22;99869.53;;;15.86
77331;BMP280;66405;48.328;7.820;2023-04-30T20:59:22;99864.78;;;15.80
77331;BMP280;66405;48.328;7.820;2023-04-30T21:02:23;99862.22;;;15.71
77331;BMP280;66405;48.328;7.820;2023-04-30T21:05:23;99858.22;;;15.67
77331;BMP280;66405;48.328;7.820;2023-04-30T21:08:24;99865.09;;;15.62
77331;BMP280;66405;48.328;7.820;2023-04-30T21:11:24;99855.19;;;15.59
77331;BMP280;66405;48.328;7.820;2023-04-30T21:14:25;99862.06;;;15.54
77331;BMP280;66405;48.328;7.820;2023-04-30T21:17:25;99865.72;;;15.45
77331;BMP280;66405;48.328;7.820;2023-04-30T21:20:26;99852.81;;;15.40
77331;BMP280;66405;48.328;7.820;2023-04-30T21:23:26;99868.09;;;15.38
77331;BMP280;66405;48.328;7.820;2023-04-30T21:26:29;99856.19;;;15.35
77331;BMP280;66405;48.328;7.820;2023-04-30T21:29:29;99854.41;;;15.32
77331;BMP280;66405;48.328;7.820;2023-04-30T21:32:29;99849.69;;;15.27
77331;BMP280;66405;48.328;7.820;2023-04-30T21:35:30;99847.88;;;15.24
77331;BMP280;66405;48.328;7.820;2023-04-30T21:38:32;99847.63;;;15.22
77331;BMP280;66405;48.328;7.820;2023-04-30T21:41:33;99842.19;;;15.22
77331;BMP280;66405;48.328;7.820;2023-04-30T21:44:34;99837.69;;;15.19
77331;BMP280;66405;48.328;7.820;2023-04-30T21:47:35;99836.72;;;15.16
77331;BMP280;66405;48.328;7.820;2023-04-30T21:50:35;99839.44;;;15.16
77331;BMP280;66405;48.328;7.820;2023-04-30T21:53:37;99837.16;;;15.15
77331;BMP280;66405;48.328;7.820;2023-04-30T21:56:38;99832.72;;;15.11
77331;BMP280;66405;48.328;7.820;2023-04-30T21:59:40;99823.97;;;15.07
77331;BMP280;66405;48.328;7.820;2023-04-30T22:02:41;99828.41;;;15.05
77331;BMP280;66405;48.328;7.820;2023-04-30T22:05:42;99824.38;;;15.00
77331;BMP280;66405;48.328;7.820;2023-04-30T22:08:42;99824.59;;;14.97
77331;BMP280;66405;48.328;7.820;2023-04-30T22:11:43;99827.28;;;14.91
77331;BMP280;66405;48.328;7.820;2023-04-30T22:14:44;99833.84;;;14.84
77331;BMP280;66405;48.328;7.820;2023-04-30T22:17:44;99826.84;;;14.77
77331;BMP280;66405;48.328;7.820;2023-04-30T22:20:47;99823.53;;;14.68
77331;BMP280;66405;48.328;7.820;2023-04-30T22:23:48;99824.69;;;14.61
77331;BMP280;66405;48.328;7.820;2023-04-30T22:26:48;99824.91;;;14.57
77331;BMP280;66405;48.328;7.820;2023-04-30T22:29:49;99823.56;;;14.53
77331;BMP280;66405;48.328;7.820;2023-04-30T22:32:49;99830.22;;;14.52
77331;BMP280;66405;48.328;7.820;2023-04-30T22:35:50;99827.25;;;14.50
77331;BMP280;66405;48.328;7.820;2023-04-30T22:38:51;99820.78;;;14.47
77331;BMP280;66405;48.328;7.820;2023-04-30T22:41:51;99819.56;;;14.48
77331;BMP280;66405;48.328;7.820;2023-04-30T22:44:53;99815.09;;;14.45
77331;BMP280;66405;48.328;7.820;2023-04-30T22:47:54;99819.19;;;14.40
77331;BMP280;66405;48.328;7.820;2023-04-30T22:50:54;99815.25;;;14.41
77331;BMP280;66405;48.328;7.820;2023-04-30T22:53:55;99817.97;;;14.41
77331;BMP280;66405;48.328;7.820;2023-04-30T22:56:56;99806.81;;;14.39
77331;BMP280;66405;48.328;7.820;2023-04-30T22:59:57;99802.63;;;14.38
77331;BMP280;66405;48.328;7.820;2023-04-30T23:02:58;99800.84;;;14.35
77331;BMP280;66405;48.328;7.820;2023-04-30T23:05:58;99806.75;;;14.34
77331;BMP280;66405;48.328;7.820;2023-04-30T23:08:59;99806.28;;;14.35
77331;BMP280;66405;48.328;7.820;2023-04-30T23:11:59;99809.75;;;14.36
77331;BMP280;66405;48.328;7.820;2023-04-30T23:15:01;99809.75;;;14.36
77331;BMP280;66405;48.328;7.820;2023-04-30T23:18:01;99802.06;;;14.34
77331;BMP280;66405;48.328;7.820;2023-04-30T23:21:04;99805.25;;;14.33
77331;BMP280;66405;48.328;7.820;2023-04-30T23:24:06;99811.44;;;14.33
77331;BMP280;66405;48.328;7.820;2023-04-30T23:27:06;99805.25;;;14.33
77331;BMP280;66405;48.328;7.820;2023-04-30T23:30:07;99804.53;;;14.32
77331;BMP280;66405;48.328;7.820;2023-04-30T23:33:10;99798.31;;;14.32
77331;BMP280;66405;48.328;7.820;2023-04-30T23:36:10;99796.84;;;14.31
77331;BMP280;66405;48.328;7.820;2023-04-30T23:39:11;99809.19;;;14.32
77331;BMP280;66405;48.328;7.820;2023-04-30T23:42:11;99803.03;;;14.31
77331;BMP280;66405;48.328;7.820;2023-04-30T23:45:12;99806.94;;;14.30
77331;BMP280;66405;48.328;7.820;2023-04-30T23:48:13;99808.84;;;14.24
77331;BMP280;66405;48.328;7.820;2023-04-30T23:51:14;99807.06;;;14.21
77331;BMP280;66405;48.328;7.820;2023-04-30T23:54:15;99804.84;;;14.19
77331;BMP280;66405;48.328;7.820;2023-04-30T23:57:15;99801.06;;;14.17
